Terminal Aerodrome Forecast
Issued by NWS

Home | Current Version | Previous Version | Text Only | Print | Product List | Glossary On
Versions: 1 2 3 4 5 6 7 8 9 10 11 12 13 14 15 16 17 18 19
000
FTAK31 PAJN 290500
TAFAYA
TAF
PAYA 290528Z 2906/3006 13006KT P6SM VCSH FEW008 SCT025 BKN040
      TEMPO 2906/2909 6SM -SHRA BR SCT008 BKN015 OVC030
     FM290900 VRB03KT 5SM -SHRA BR SCT008 BKN020 OVC030
      TEMPO 2909/2913 00000KT 3SM BR FEW005 BKN015 OVC025
     FM291800 13008KT P6SM -SHRA SCT015 BKN025 OVC050
      AMD LTD TO CLD VIS AND WIND 2906/2910=

USA.gov is the U.S. government's official web portal to all federal, state and local government web resources and services.